createdAt,value
2022-12-25T00:01:11.867Z,100985.20
2022-12-25T00:03:48.528Z,100996.80
2022-12-25T00:06:17.618Z,100992.20
2022-12-25T00:08:45.989Z,100993.40
2022-12-25T00:11:20.004Z,100990.80
2022-12-25T00:13:49.127Z,100985.80
2022-12-25T00:16:23.263Z,100985.20
2022-12-25T00:18:51.704Z,100990.00
2022-12-25T00:21:21.389Z,100993.40
2022-12-25T00:23:55.434Z,100987.20
2022-12-25T00:26:24.652Z,100997.60
2022-12-25T00:28:57.418Z,101009.80
2022-12-25T00:31:26.471Z,101019.20
2022-12-25T00:33:54.990Z,101018.00
2022-12-25T00:36:23.936Z,101026.20
2022-12-25T00:38:51.886Z,101022.80
2022-12-25T00:41:43.016Z,101022.00
2022-12-25T00:44:14.064Z,101023.40
2022-12-25T00:46:42.993Z,101019.80
2022-12-25T00:49:12.327Z,101023.60
2022-12-25T00:51:40.489Z,101021.20
2022-12-25T00:54:08.809Z,101024.00
2022-12-25T00:56:36.707Z,101027.00
2022-12-25T00:59:04.555Z,101026.00
2022-12-25T01:01:33.599Z,101028.00
2022-12-25T01:04:01.699Z,101025.00
2022-12-25T01:06:30.189Z,101028.40
2022-12-25T01:09:17.547Z,101034.00
2022-12-25T01:11:45.713Z,101041.60
2022-12-25T01:14:14.505Z,101042.60
2022-12-25T01:16:42.742Z,101046.60
2022-12-25T01:19:11.318Z,101055.60
2022-12-25T01:21:39.513Z,101050.60
2022-12-25T01:24:07.676Z,101042.60
2022-12-25T01:26:35.470Z,101043.80
2022-12-25T01:29:03.986Z,101034.00
2022-12-25T01:31:31.854Z,101036.00
2022-12-25T01:33:59.761Z,101033.00
2022-12-25T01:36:27.656Z,101029.60
2022-12-25T01:38:55.829Z,101030.40
2022-12-25T01:41:25.593Z,101034.00
2022-12-25T01:44:28.988Z,101030.80
2022-12-25T01:46:56.763Z,101040.00
2022-12-25T01:49:26.514Z,101045.20
2022-12-25T01:52:05.519Z,101039.80
2022-12-25T01:54:41.496Z,101038.20
2022-12-25T01:57:17.143Z,101045.80
2022-12-25T01:59:46.229Z,101047.00
2022-12-25T02:02:14.744Z,101048.80
2022-12-25T02:04:52.428Z,101046.40
2022-12-25T02:07:25.050Z,101036.20
2022-12-25T02:09:53.679Z,101050.80
2022-12-25T02:12:26.996Z,101054.80
2022-12-25T02:15:05.793Z,101063.60
2022-12-25T02:17:42.886Z,101053.40
2022-12-25T02:20:34.012Z,101056.00
2022-12-25T02:23:58.182Z,101047.20
2022-12-25T02:27:02.924Z,101038.80
2022-12-25T02:29:50.884Z,101044.80
2022-12-25T02:32:39.153Z,101039.20
2022-12-25T02:35:25.631Z,101043.40
2022-12-25T02:38:14.373Z,101045.60
2022-12-25T02:40:57.476Z,101051.60
2022-12-25T02:43:53.460Z,101048.60
2022-12-25T02:46:43.812Z,101047.00
2022-12-25T02:49:42.754Z,101048.40
2022-12-25T02:52:35.347Z,101049.60
2022-12-25T02:55:33.165Z,101047.60
2022-12-25T02:58:27.856Z,101053.00
2022-12-25T03:01:24.032Z,101050.60
2022-12-25T03:04:16.872Z,101053.00
2022-12-25T03:07:12.025Z,101059.80
2022-12-25T03:10:06.051Z,101056.80
2022-12-25T03:13:17.072Z,101055.00
2022-12-25T03:16:05.255Z,101048.80
2022-12-25T03:18:34.562Z,101043.00
2022-12-25T03:21:21.822Z,101047.80
2022-12-25T03:24:16.696Z,101048.80
2022-12-25T03:26:58.113Z,101046.20
2022-12-25T03:29:52.679Z,101050.60
2022-12-25T03:32:41.751Z,101055.20
2022-12-25T03:35:33.441Z,101056.20
2022-12-25T03:38:48.348Z,101062.60
2022-12-25T03:42:01.631Z,101070.40
2022-12-25T03:46:02.750Z,101070.40
2022-12-25T03:48:55.266Z,101077.40
2022-12-25T03:51:50.001Z,101087.40
2022-12-25T03:54:45.885Z,101089.60
2022-12-25T03:57:33.472Z,101087.60
2022-12-25T04:00:20.455Z,101100.00
2022-12-25T04:03:07.133Z,101098.60
2022-12-25T04:05:53.742Z,101104.80
2022-12-25T04:08:40.051Z,101107.80
2022-12-25T04:11:26.495Z,101106.00
2022-12-25T04:14:12.912Z,101108.60
2022-12-25T04:16:59.464Z,101105.20
2022-12-25T04:19:53.353Z,101109.80
2022-12-25T04:22:40.209Z,101115.40
2022-12-25T04:25:27.075Z,101123.00
2022-12-25T04:28:19.263Z,101121.40
2022-12-25T04:31:06.202Z,101110.20
2022-12-25T04:33:52.731Z,101118.20
2022-12-25T04:36:21.758Z,101119.00
2022-12-25T04:38:49.614Z,101123.40
2022-12-25T04:41:17.484Z,101121.20
2022-12-25T04:43:45.333Z,101118.00
2022-12-25T04:46:13.203Z,101119.40
2022-12-25T04:48:41.046Z,101117.20
2022-12-25T04:51:22.369Z,101116.00
2022-12-25T04:53:51.976Z,101116.20
2022-12-25T04:56:21.353Z,101113.00
2022-12-25T04:58:49.607Z,101122.60
2022-12-25T05:01:17.753Z,101117.00
2022-12-25T05:03:45.868Z,101114.00
2022-12-25T05:06:13.833Z,101126.40
2022-12-25T05:08:41.731Z,101124.00
2022-12-25T05:11:13.568Z,101120.80
2022-12-25T05:13:41.801Z,101120.80
2022-12-25T05:16:15.371Z,101122.60
2022-12-25T05:18:44.277Z,101129.60
2022-12-25T05:21:12.617Z,101127.40
2022-12-25T05:23:48.752Z,101130.20
2022-12-25T05:26:20.485Z,101127.40
2022-12-25T05:28:49.533Z,101126.20
2022-12-25T05:31:19.055Z,101120.00
2022-12-25T05:33:51.545Z,101122.40
2022-12-25T05:36:19.665Z,101117.00
2022-12-25T05:38:47.517Z,101118.20
2022-12-25T05:41:15.544Z,101121.80
2022-12-25T05:43:43.331Z,101123.80
2022-12-25T05:46:13.929Z,101123.20
2022-12-25T05:48:42.122Z,101120.80
2022-12-25T05:51:14.846Z,101122.60
2022-12-25T05:53:43.889Z,101115.20
2022-12-25T05:56:11.997Z,101119.40
2022-12-25T05:58:41.031Z,101119.80
2022-12-25T06:01:17.345Z,101129.20
2022-12-25T06:03:45.681Z,101137.40
2022-12-25T06:06:14.386Z,101146.20
2022-12-25T06:08:42.820Z,101149.00
2022-12-25T06:11:13.593Z,101149.00
2022-12-25T06:13:42.233Z,101147.80
2022-12-25T06:16:12.381Z,101151.20
2022-12-25T06:18:46.404Z,101151.60
2022-12-25T06:21:16.234Z,101145.20
2022-12-25T06:23:45.426Z,101151.40
2022-12-25T06:26:19.547Z,101152.80
2022-12-25T06:28:48.143Z,101151.80
2022-12-25T06:31:20.891Z,101158.80
2022-12-25T06:33:50.254Z,101163.60
2022-12-25T06:36:29.601Z,101166.00
2022-12-25T06:39:01.323Z,101174.60
2022-12-25T06:41:30.614Z,101174.00
2022-12-25T06:44:01.630Z,101181.60
2022-12-25T06:46:32.128Z,101189.40
2022-12-25T06:49:00.783Z,101193.00
2022-12-25T06:51:32.163Z,101198.80
2022-12-25T06:54:04.106Z,101200.40
2022-12-25T06:56:33.833Z,101195.40
2022-12-25T06:59:09.004Z,101195.40
2022-12-25T07:01:51.546Z,101192.80
2022-12-25T07:04:33.621Z,101206.40
2022-12-25T07:07:08.386Z,101206.00
2022-12-25T07:09:42.575Z,101209.40
2022-12-25T07:12:21.106Z,101215.00
2022-12-25T07:14:50.267Z,101212.20
2022-12-25T07:17:20.464Z,101212.80
2022-12-25T07:19:49.230Z,101214.40
2022-12-25T07:22:17.774Z,101222.60
2022-12-25T07:24:45.665Z,101226.80
2022-12-25T07:27:13.492Z,101234.00
2022-12-25T07:29:41.412Z,101244.40
2022-12-25T07:32:09.493Z,101248.00
2022-12-25T07:34:37.407Z,101257.80
2022-12-25T07:37:05.272Z,101263.40
2022-12-25T07:39:34.675Z,101260.80
2022-12-25T07:42:02.474Z,101262.00
2022-12-25T07:44:30.395Z,101271.80
2022-12-25T07:46:58.206Z,101280.20
2022-12-25T07:49:26.174Z,101282.00
2022-12-25T07:51:54.002Z,101279.80
2022-12-25T07:54:21.902Z,101278.00
2022-12-25T07:56:53.706Z,101275.80
2022-12-25T07:59:21.649Z,101274.60
2022-12-25T08:01:50.781Z,101276.80
2022-12-25T08:04:19.297Z,101273.00
2022-12-25T08:06:47.347Z,101274.00
2022-12-25T08:09:15.285Z,101268.00
2022-12-25T08:11:47.485Z,101281.00
2022-12-25T08:14:15.898Z,101290.60
2022-12-25T08:16:44.752Z,101290.60
2022-12-25T08:19:14.592Z,101285.60
2022-12-25T08:21:42.457Z,101287.00
2022-12-25T08:24:10.920Z,101287.40
2022-12-25T08:26:38.744Z,101284.40
2022-12-25T08:29:11.361Z,101283.40
2022-12-25T08:31:46.687Z,101287.60
2022-12-25T08:34:15.547Z,101291.00
2022-12-25T08:36:43.651Z,101295.80
2022-12-25T08:39:11.944Z,101295.20
2022-12-25T08:41:40.431Z,101300.20
2022-12-25T08:44:08.393Z,101290.80
2022-12-25T08:46:36.880Z,101282.80
2022-12-25T08:49:04.964Z,101287.40
2022-12-25T08:51:32.943Z,101283.00
2022-12-25T08:54:01.296Z,101277.20
2022-12-25T08:56:29.626Z,101283.80
2022-12-25T08:58:57.683Z,101281.80
2022-12-25T09:01:25.675Z,101283.00
2022-12-25T09:03:53.659Z,101281.40
2022-12-25T09:06:21.505Z,101283.20
2022-12-25T09:08:50.063Z,101280.80
2022-12-25T09:11:20.543Z,101282.20
2022-12-25T09:13:49.450Z,101296.00
2022-12-25T09:16:21.797Z,101308.60
2022-12-25T09:18:50.685Z,101308.40
2022-12-25T09:21:19.718Z,101306.80
2022-12-25T09:23:47.704Z,101306.60
2022-12-25T09:26:18.533Z,101313.40
2022-12-25T09:28:51.933Z,101310.00
2022-12-25T09:31:22.859Z,101309.60
2022-12-25T09:33:52.041Z,101301.80
2022-12-25T09:36:23.441Z,101300.60
2022-12-25T09:38:52.858Z,101301.20
2022-12-25T09:41:34.713Z,101299.60
2022-12-25T09:44:10.085Z,101294.40
2022-12-25T09:46:49.134Z,101286.20
2022-12-25T09:49:38.153Z,101293.00
2022-12-25T09:52:31.618Z,101296.00
2022-12-25T09:55:20.050Z,101308.20
2022-12-25T09:57:55.914Z,101305.40
2022-12-25T10:00:34.166Z,101301.00
2022-12-25T10:03:23.371Z,101306.20
2022-12-25T10:06:33.403Z,101316.00
2022-12-25T10:09:26.444Z,101317.80
2022-12-25T10:12:30.366Z,101315.60
2022-12-25T10:15:26.406Z,101317.60
2022-12-25T10:18:53.799Z,101310.60
2022-12-25T10:21:23.929Z,101315.20
2022-12-25T10:24:33.442Z,101312.20
2022-12-25T10:27:08.194Z,101317.80
2022-12-25T10:29:36.323Z,101310.60
2022-12-25T10:32:04.641Z,101307.00
2022-12-25T10:34:33.490Z,101305.60
2022-12-25T10:37:02.245Z,101303.20
2022-12-25T10:39:30.243Z,101299.00
2022-12-25T10:42:31.114Z,101295.00
2022-12-25T10:45:08.344Z,101298.00
2022-12-25T10:47:42.765Z,101294.80
2022-12-25T10:50:24.844Z,101293.80
2022-12-25T10:53:04.910Z,101287.40
2022-12-25T10:55:33.839Z,101281.40
2022-12-25T10:58:02.413Z,101279.20
2022-12-25T11:00:33.126Z,101274.20
2022-12-25T11:03:01.560Z,101275.40
2022-12-25T11:05:35.055Z,101283.00
2022-12-25T11:08:04.222Z,101275.00
2022-12-25T11:10:38.196Z,101282.60
2022-12-25T11:13:17.715Z,101281.60
2022-12-25T11:15:49.333Z,101287.00
2022-12-25T11:18:29.615Z,101293.60
2022-12-25T11:21:02.846Z,101296.60
2022-12-25T11:23:33.239Z,101287.40
2022-12-25T11:26:07.997Z,101281.00
2022-12-25T11:28:46.623Z,101277.20
2022-12-25T11:31:20.654Z,101272.20
2022-12-25T11:34:05.640Z,101273.20
2022-12-25T11:36:51.834Z,101271.00
2022-12-25T11:39:28.482Z,101276.80
2022-12-25T11:42:14.374Z,101268.60
2022-12-25T11:44:49.682Z,101270.20
2022-12-25T11:47:45.171Z,101261.40
2022-12-25T11:50:21.169Z,101261.80
2022-12-25T11:52:58.471Z,101261.20
2022-12-25T11:55:41.543Z,101270.00
2022-12-25T11:58:36.233Z,101270.00
2022-12-25T12:01:34.154Z,101275.40
2022-12-25T12:04:08.758Z,101273.00
2022-12-25T12:07:02.027Z,101265.80
2022-12-25T12:10:06.456Z,101267.20
2022-12-25T12:13:10.580Z,101272.00
2022-12-25T12:15:47.505Z,101269.60
2022-12-25T12:18:23.599Z,101269.20
2022-12-25T12:21:18.094Z,101283.00
2022-12-25T12:23:47.284Z,101285.60
2022-12-25T12:26:25.086Z,101287.00
2022-12-25T12:28:59.485Z,101298.60
2022-12-25T12:31:43.036Z,101297.60
2022-12-25T12:34:34.553Z,101301.60
2022-12-25T12:37:08.402Z,101313.00
2022-12-25T12:39:40.857Z,101321.00
2022-12-25T12:42:21.414Z,101329.40
2022-12-25T12:44:50.600Z,101329.00
2022-12-25T12:47:47.029Z,101324.80
2022-12-25T12:50:33.165Z,101321.60
2022-12-25T12:53:22.200Z,101315.20
2022-12-25T12:55:52.130Z,101320.80
2022-12-25T12:58:40.488Z,101317.20
2022-12-25T13:01:26.655Z,101313.80
2022-12-25T13:04:34.861Z,101321.60
2022-12-25T13:07:24.910Z,101318.20
2022-12-25T13:10:13.792Z,101312.60
2022-12-25T13:12:41.930Z,101309.20
2022-12-25T13:15:21.393Z,101311.40
2022-12-25T13:17:50.226Z,101306.40
2022-12-25T13:20:33.461Z,101309.60
2022-12-25T13:23:01.400Z,101314.80
2022-12-25T13:25:29.440Z,101319.00
2022-12-25T13:27:59.639Z,101323.40
2022-12-25T13:30:27.844Z,101313.60
2022-12-25T13:33:00.282Z,101311.60
2022-12-25T13:35:28.520Z,101304.60
2022-12-25T13:37:56.847Z,101302.80
2022-12-25T13:40:28.577Z,101309.20
2022-12-25T13:43:01.912Z,101318.40
2022-12-25T13:45:31.389Z,101316.00
2022-12-25T13:48:15.928Z,101307.40
2022-12-25T13:50:48.648Z,101302.00
2022-12-25T13:53:18.192Z,101302.40
2022-12-25T13:55:56.030Z,101298.80
2022-12-25T13:58:31.635Z,101304.60
2022-12-25T14:01:02.817Z,101312.00
2022-12-25T14:03:46.217Z,101302.00
2022-12-25T14:06:32.597Z,101307.60
2022-12-25T14:09:00.969Z,101307.20
2022-12-25T14:11:32.373Z,101315.00
2022-12-25T14:14:12.350Z,101318.00
2022-12-25T14:16:43.814Z,101315.40
2022-12-25T14:19:29.884Z,101321.40
2022-12-25T14:22:22.727Z,101323.00
2022-12-25T14:24:51.255Z,101328.80
2022-12-25T14:27:32.680Z,101329.20
2022-12-25T14:30:01.689Z,101334.00
2022-12-25T14:32:38.524Z,101334.40
2022-12-25T14:35:07.175Z,101329.20
2022-12-25T14:37:37.373Z,101326.80
2022-12-25T14:40:26.315Z,101325.40
2022-12-25T14:43:17.234Z,101322.20
2022-12-25T14:45:59.981Z,101326.40
2022-12-25T14:48:31.979Z,101324.00
2022-12-25T14:51:04.184Z,101327.60
2022-12-25T14:53:49.272Z,101328.40
2022-12-25T14:56:24.603Z,101326.80
2022-12-25T14:58:57.418Z,101329.20
2022-12-25T15:01:36.327Z,101326.60
2022-12-25T15:04:10.227Z,101323.00
2022-12-25T15:07:00.040Z,101316.80
2022-12-25T15:09:30.215Z,101313.00
2022-12-25T15:11:58.211Z,101298.20
2022-12-25T15:14:27.599Z,101298.60
2022-12-25T15:17:00.708Z,101301.40
2022-12-25T15:19:38.149Z,101301.60
2022-12-25T15:22:07.149Z,101306.40
2022-12-25T15:24:35.664Z,101307.40
2022-12-25T15:27:05.490Z,101304.20
2022-12-25T15:30:08.030Z,101306.40
2022-12-25T15:32:24.328Z,101303.60
2022-12-25T15:34:54.292Z,101302.40
2022-12-25T15:37:22.144Z,101308.00
2022-12-25T15:39:50.069Z,101309.60
2022-12-25T15:42:23.117Z,101307.40
2022-12-25T15:44:52.018Z,101304.60
2022-12-25T15:47:20.374Z,101305.60
2022-12-25T15:49:49.211Z,101315.40
2022-12-25T15:52:18.360Z,101312.80
2022-12-25T15:54:46.379Z,101313.80
2022-12-25T15:57:22.476Z,101311.80
2022-12-25T15:59:50.383Z,101316.40
2022-12-25T16:02:21.181Z,101308.20
2022-12-25T16:04:51.207Z,101310.00
2022-12-25T16:07:23.637Z,101311.00
2022-12-25T16:09:52.583Z,101315.80
2022-12-25T16:12:20.772Z,101316.80
2022-12-25T16:14:48.797Z,101317.00
2022-12-25T16:17:16.850Z,101317.00
2022-12-25T16:19:44.983Z,101319.60
2022-12-25T16:22:18.646Z,101314.20
2022-12-25T16:24:46.709Z,101309.80
2022-12-25T16:27:14.916Z,101305.60
2022-12-25T16:29:43.308Z,101301.20
2022-12-25T16:32:13.492Z,101303.60
2022-12-25T16:34:41.570Z,101291.40
2022-12-25T16:37:09.502Z,101284.80
2022-12-25T16:39:38.409Z,101274.20
2022-12-25T16:42:06.489Z,101268.80
2022-12-25T16:44:37.637Z,101279.00
2022-12-25T16:47:05.816Z,101283.00
2022-12-25T16:49:33.897Z,101284.80
2022-12-25T16:52:02.760Z,101289.20
2022-12-25T16:54:30.657Z,101284.20
2022-12-25T16:56:58.546Z,101281.20
2022-12-25T16:59:29.585Z,101277.60
2022-12-25T17:01:57.627Z,101277.20
2022-12-25T17:04:27.626Z,101275.40
2022-12-25T17:06:56.371Z,101272.80
2022-12-25T17:09:24.965Z,101271.40
2022-12-25T17:11:53.024Z,101270.40
2022-12-25T17:14:21.684Z,101267.20
2022-12-25T17:16:55.023Z,101275.40
2022-12-25T17:19:26.539Z,101277.60
2022-12-25T17:21:57.442Z,101273.00
2022-12-25T17:24:28.163Z,101265.80
2022-12-25T17:26:56.202Z,101265.00
2022-12-25T17:29:30.726Z,101266.80
2022-12-25T17:31:58.778Z,101264.80
2022-12-25T17:34:27.387Z,101255.00
2022-12-25T17:36:59.213Z,101258.60
2022-12-25T17:39:27.452Z,101264.60
2022-12-25T17:41:55.420Z,101257.00
2022-12-25T17:44:23.501Z,101250.80
2022-12-25T17:46:51.762Z,101253.60
2022-12-25T17:49:21.980Z,101254.00
2022-12-25T17:51:50.452Z,101248.00
2022-12-25T17:54:18.571Z,101247.40
2022-12-25T17:56:49.629Z,101241.60
2022-12-25T17:59:19.039Z,101243.40
2022-12-25T18:01:48.552Z,101237.00
2022-12-25T18:04:17.168Z,101237.60
2022-12-25T18:06:45.835Z,101232.40
2022-12-25T18:09:17.886Z,101230.60
2022-12-25T18:11:46.159Z,101227.20
2022-12-25T18:14:16.837Z,101226.40
2022-12-25T18:16:46.165Z,101224.80
2022-12-25T18:19:15.802Z,101231.60
2022-12-25T18:21:44.672Z,101224.60
2022-12-25T18:24:13.408Z,101227.80
2022-12-25T18:26:41.375Z,101227.00
2022-12-25T18:29:09.655Z,101236.00
2022-12-25T18:31:37.735Z,101224.40
2022-12-25T18:34:05.642Z,101224.60
2022-12-25T18:36:34.148Z,101220.20
2022-12-25T18:39:05.959Z,101215.40
2022-12-25T18:41:54.497Z,101219.20
2022-12-25T18:44:22.443Z,101208.00
2022-12-25T18:46:50.383Z,101205.80
2022-12-25T18:49:18.232Z,101206.80
2022-12-25T18:51:46.085Z,101201.60
2022-12-25T18:54:13.914Z,101200.00
2022-12-25T18:56:42.026Z,101193.40
2022-12-25T18:59:09.999Z,101193.00
2022-12-25T19:01:39.974Z,101191.80
2022-12-25T19:04:12.980Z,101192.20
2022-12-25T19:06:43.780Z,101182.80
2022-12-25T19:09:11.977Z,101177.00
2022-12-25T19:11:46.504Z,101170.40
2022-12-25T19:14:15.928Z,101166.60
2022-12-25T19:16:44.903Z,101166.40
2022-12-25T19:19:14.491Z,101164.00
2022-12-25T19:21:42.297Z,101164.40
2022-12-25T19:24:10.518Z,101167.80
2022-12-25T19:26:38.815Z,101162.80
2022-12-25T19:29:07.112Z,101153.20
2022-12-25T19:31:35.303Z,101142.20
2022-12-25T19:34:04.273Z,101138.20
2022-12-25T19:36:32.767Z,101136.60
2022-12-25T19:39:01.094Z,101135.00
2022-12-25T19:41:29.177Z,101137.20
2022-12-25T19:43:57.461Z,101128.40
2022-12-25T19:46:36.614Z,101126.40
2022-12-25T19:49:05.308Z,101136.20
2022-12-25T19:51:44.672Z,101130.00
2022-12-25T19:54:20.748Z,101131.60
2022-12-25T19:56:49.397Z,101132.80
2022-12-25T19:59:17.385Z,101141.60
2022-12-25T20:01:45.645Z,101136.20
2022-12-25T20:04:15.346Z,101138.20
2022-12-25T20:06:44.437Z,101134.60
2022-12-25T20:09:21.485Z,101129.20
2022-12-25T20:11:49.979Z,101128.80
2022-12-25T20:14:18.394Z,101122.20
2022-12-25T20:16:47.079Z,101121.60
2022-12-25T20:19:15.770Z,101120.00
2022-12-25T20:21:43.869Z,101117.20
2022-12-25T20:24:12.128Z,101114.00
2022-12-25T20:26:40.152Z,101113.40
2022-12-25T20:29:08.274Z,101123.20
2022-12-25T20:31:36.532Z,101122.40
2022-12-25T20:34:08.926Z,101110.60
2022-12-25T20:36:38.256Z,101109.00
2022-12-25T20:39:10.247Z,101110.00
2022-12-25T20:41:39.891Z,101119.40
2022-12-25T20:44:10.503Z,101117.00
2022-12-25T20:46:38.831Z,101119.00
2022-12-25T20:49:06.928Z,101117.40
2022-12-25T20:51:35.130Z,101114.20
2022-12-25T20:54:08.506Z,101104.60
2022-12-25T20:56:36.957Z,101100.20
2022-12-25T20:59:04.779Z,101091.40
2022-12-25T21:01:32.723Z,101085.20
2022-12-25T21:04:00.722Z,101082.20
2022-12-25T21:06:28.607Z,101077.60
2022-12-25T21:08:56.534Z,101080.00
2022-12-25T21:11:24.481Z,101069.60
2022-12-25T21:13:52.645Z,101063.00
2022-12-25T21:16:22.981Z,101056.40
2022-12-25T21:18:53.679Z,101053.80
2022-12-25T21:21:22.851Z,101063.40
2022-12-25T21:23:51.187Z,101056.60
2022-12-25T21:26:23.441Z,101050.80
2022-12-25T21:28:55.786Z,101048.80
2022-12-25T21:31:25.711Z,101050.20
2022-12-25T21:33:55.919Z,101044.00
2022-12-25T21:36:31.022Z,101033.60
2022-12-25T21:39:03.281Z,101025.40
2022-12-25T21:41:34.308Z,101020.20
2022-12-25T21:44:02.413Z,101007.40
2022-12-25T21:46:31.009Z,101005.40
2022-12-25T21:48:59.973Z,100993.80
2022-12-25T21:51:50.170Z,100994.80
2022-12-25T21:54:21.108Z,100986.40
2022-12-25T21:56:50.431Z,100978.00
2022-12-25T21:59:22.036Z,100973.60
2022-12-25T22:01:52.056Z,100970.40
2022-12-25T22:04:23.457Z,100964.80
2022-12-25T22:07:10.786Z,100961.20
2022-12-25T22:09:38.989Z,100962.20
2022-12-25T22:12:32.110Z,100956.00
2022-12-25T22:15:09.928Z,100955.60
2022-12-25T22:18:01.785Z,100951.20
2022-12-25T22:20:36.089Z,100950.40
2022-12-25T22:23:05.258Z,100932.20
2022-12-25T22:25:33.262Z,100922.20
2022-12-25T22:28:01.216Z,100917.80
2022-12-25T22:30:29.597Z,100913.20
2022-12-25T22:32:58.402Z,100911.80
2022-12-25T22:35:26.542Z,100900.00
2022-12-25T22:37:54.885Z,100901.20
2022-12-25T22:40:22.850Z,100894.40
2022-12-25T22:42:55.542Z,100890.80
2022-12-25T22:45:24.344Z,100875.60
2022-12-25T22:47:52.273Z,100872.40
2022-12-25T22:50:20.388Z,100870.60
2022-12-25T22:52:48.243Z,100876.00
2022-12-25T22:55:18.612Z,100884.20
2022-12-25T22:57:46.864Z,100887.20
2022-12-25T23:00:14.869Z,100882.20
2022-12-25T23:02:42.921Z,100880.60
2022-12-25T23:05:11.203Z,100877.00
2022-12-25T23:07:39.084Z,100880.40
2022-12-25T23:10:08.258Z,100872.60
2022-12-25T23:12:54.922Z,100874.40
2022-12-25T23:15:23.015Z,100868.20
2022-12-25T23:18:09.880Z,100856.80
2022-12-25T23:20:56.788Z,100863.60
2022-12-25T23:23:43.342Z,100864.80
2022-12-25T23:26:12.948Z,100863.80
2022-12-25T23:29:01.856Z,100864.00
2022-12-25T23:31:35.759Z,100865.40
2022-12-25T23:34:06.015Z,100855.80
2022-12-25T23:36:34.773Z,100863.00
2022-12-25T23:39:09.651Z,100852.60
2022-12-25T23:41:40.546Z,100852.00
2022-12-25T23:44:11.252Z,100850.80
2022-12-25T23:46:40.399Z,100853.00
2022-12-25T23:49:10.455Z,100849.00
2022-12-25T23:51:45.278Z,100851.80
2022-12-25T23:54:18.267Z,100848.80
2022-12-25T23:56:46.578Z,100844.60
2022-12-25T23:59:15.257Z,100844.20
